Time;durP1;ratioP1;P1;durP2;ratioP2;P2;SDS_P1;SDS_P2;PMS_P1;PMS_P2;Temp;Humidity;BMP_temperature;BMP_pressure;BME280_temperature;BME280_humidity;BME280_pressure;Samples;Min_cycle;Max_cycle;Signal;HPM_P1;HPM_P2
2022/02/09 00:04:40;;;;;;;7.22;4.45;;;;;;;;;;5063971;28;20055;-78
2022/02/09 00:07:11;;;;;;;9.90;4.82;;;;;;;;;;5072735;28;20123;-77
2022/02/09 00:09:40;;;;;;;11.10;5.97;;;;;;;;;;5072253;28;20055;-76
2022/02/09 00:12:11;;;;;;;10.77;4.68;;;;;;;;;;5054062;28;20119;-82
2022/02/09 00:22:28;;;;;;;7.15;3.95;;;;;;;;;;5052016;28;20036;-79
2022/02/09 00:28:15;;;;;;;6.30;4.22;;;;;;;;;;5052100;28;20067;-82
2022/02/09 01:03:06;;;;;;;11.15;4.97;;;;;;;;;;5051780;28;20430;-78
2022/02/09 01:38:55;;;;;;;7.50;4.72;;;;;;;;;;5051700;28;20554;-78
2022/02/09 01:57:47;;;;;;;8.98;4.38;;;;;;;;;;5055214;28;20036;-77
2022/02/09 02:00:13;;;;;;;9.70;5.03;;;;;;;;;;5054697;28;20025;-78
2022/02/09 02:02:39;;;;;;;15.25;6.15;;;;;;;;;;5054981;28;20060;-77
2022/02/09 02:05:05;;;;;;;8.85;4.60;;;;;;;;;;5037510;28;20081;-79
2022/02/09 02:07:53;;;;;;;8.23;4.20;;;;;;;;;;5034650;28;20116;-80
2022/02/09 02:18:15;;;;;;;15.05;7.82;;;;;;;;;;5034841;28;20036;-79
2022/02/09 02:28:51;;;;;;;;;;;;;;;;;;5034899;28;20083;-78
2022/02/09 02:39:59;;;;;;;8.30;4.25;;;;;;;;;;5034472;28;19911;-79
2022/02/09 03:09:33;;;;;;;8.80;3.63;;;;;;;;;;5033480;28;20507;-77
2022/02/09 03:12:17;;;;;;;7.20;4.15;;;;;;;;;;5033131;28;20033;-80
2022/02/09 03:15:04;;;;;;;9.82;4.38;;;;;;;;;;5033465;28;20057;-77
2022/02/09 03:17:35;;;;;;;6.10;4.03;;;;;;;;;;5033593;28;20036;-79
2022/02/09 03:23:01;;;;;;;7.30;4.03;;;;;;;;;;5033070;28;20459;-75
2022/02/09 03:26:08;;;;;;;8.90;4.50;;;;;;;;;;5033301;28;20040;-80
2022/02/09 03:52:48;;;;;;;8.20;3.90;;;;;;;;;;5032694;28;20041;-77
2022/02/09 03:57:52;;;;;;;;;;;;;;;;;;5033414;28;20112;-78
2022/02/09 04:00:19;;;;;;;8.35;4.93;;;;;;;;;;5032549;28;20334;-77
2022/02/09 04:02:46;;;;;;;9.25;4.88;;;;;;;;;;5032568;28;20117;-80
2022/02/09 04:05:14;;;;;;;8.30;4.32;;;;;;;;;;5032378;28;20061;-78
2022/02/09 04:07:40;;;;;;;8.15;4.13;;;;;;;;;;5032668;28;20031;-79
2022/02/09 04:10:10;;;;;;;7.85;4.20;;;;;;;;;;5030944;28;20502;-77
2022/02/09 04:12:44;;;;;;;8.60;4.40;;;;;;;;;;5032663;28;20087;-78
2022/02/09 04:15:26;;;;;;;11.90;4.75;;;;;;;;;;5033404;28;20033;-79
2022/02/09 04:44:53;;;;;;;7.60;3.75;;;;;;;;;;5032330;28;20080;-78
2022/02/09 04:50:37;;;;;;;8.50;4.88;;;;;;;;;;5031870;28;20504;-78
2022/02/09 04:58:33;;;;;;;;;;;;;;;;;;5032775;28;20045;-77
2022/02/09 05:27:20;;;;;;;;;;;;;;;;;;5036691;28;20518;-83
2022/02/09 05:29:49;;;;;;;8.75;5.13;;;;;;;;;;5034985;28;20322;-83
2022/02/09 05:32:15;;;;;;;9.68;5.63;;;;;;;;;;5035590;28;20034;-79
2022/02/09 05:34:41;;;;;;;9.52;5.47;;;;;;;;;;5036346;28;20032;-78
2022/02/09 05:37:07;;;;;;;18.17;9.40;;;;;;;;;;5036095;28;20491;-81
2022/02/09 05:39:34;;;;;;;19.25;10.68;;;;;;;;;;5036001;28;20057;-81
2022/02/09 05:42:00;;;;;;;17.60;8.45;;;;;;;;;;5035890;28;20057;-79
2022/02/09 05:44:26;;;;;;;10.93;5.35;;;;;;;;;;5035527;28;20048;-81
2022/02/09 05:58:12;;;;;;;10.30;4.28;;;;;;;;;;5035398;28;20040;-83
2022/02/09 06:00:47;;;;;;;14.70;7.75;;;;;;;;;;5035422;28;20049;-81
2022/02/09 06:03:13;;;;;;;16.90;8.63;;;;;;;;;;5034652;28;20033;-81
2022/02/09 06:05:39;;;;;;;17.65;9.30;;;;;;;;;;5035303;28;20116;-77
2022/02/09 06:08:05;;;;;;;19.58;11.27;;;;;;;;;;5035271;28;20384;-77
2022/02/09 06:10:33;;;;;;;22.92;10.95;;;;;;;;;;5034891;28;20175;-80
2022/02/09 06:16:02;;;;;;;26.85;14.93;;;;;;;;;;5034831;28;20510;-79
2022/02/09 06:21:18;;;;;;;37.60;21.77;;;;;;;;;;5034795;28;20036;-81
2022/02/09 06:23:44;;;;;;;32.40;18.73;;;;;;;;;;5034911;28;20049;-77
2022/02/09 06:26:10;;;;;;;53.05;32.38;;;;;;;;;;5023174;28;20033;-82
2022/02/09 06:28:36;;;;;;;25.13;14.60;;;;;;;;;;5021941;28;20396;-80
2022/02/09 06:31:02;;;;;;;15.82;9.95;;;;;;;;;;5013998;28;20121;-77
2022/02/09 06:33:28;;;;;;;13.55;8.10;;;;;;;;;;5014857;28;20041;-79
2022/02/09 06:35:57;;;;;;;16.65;10.07;;;;;;;;;;5029818;28;20025;-78
2022/02/09 06:38:24;;;;;;;19.02;12.55;;;;;;;;;;5013975;28;20045;-76
2022/02/09 06:40:56;;;;;;;23.42;14.93;;;;;;;;;;5014773;28;20034;-81
2022/02/09 06:43:22;;;;;;;21.45;12.48;;;;;;;;;;5013872;28;20026;-80
2022/02/09 06:45:49;;;;;;;22.27;12.85;;;;;;;;;;5026164;28;20036;-79
2022/02/09 06:48:17;;;;;;;11.00;6.45;;;;;;;;;;5033231;28;20082;-82
2022/02/09 06:50:51;;;;;;;11.93;7.32;;;;;;;;;;5015642;28;20075;-81
2022/02/09 06:56:01;;;;;;;11.98;7.70;;;;;;;;;;5031879;28;20037;-80
2022/02/09 07:01:01;;;;;;;15.90;8.60;;;;;;;;;;5028862;28;20078;-77
2022/02/09 07:03:27;;;;;;;17.27;10.32;;;;;;;;;;5028743;28;20670;-80
2022/02/09 07:05:53;;;;;;;22.90;13.07;;;;;;;;;;5052698;28;20041;-78
2022/02/09 07:08:19;;;;;;;19.55;12.35;;;;;;;;;;5067285;28;20028;-79
2022/02/09 07:10:45;;;;;;;31.00;17.95;;;;;;;;;;5053378;28;20029;-80
2022/02/09 07:13:11;;;;;;;28.48;16.80;;;;;;;;;;5053155;28;20096;-78
2022/02/09 07:15:42;;;;;;;21.98;13.50;;;;;;;;;;5053209;28;20025;-79
2022/02/09 07:18:12;;;;;;;18.30;11.43;;;;;;;;;;5058545;28;20369;-78
2022/02/09 07:20:52;;;;;;;20.33;11.75;;;;;;;;;;5039679;28;20021;-78
2022/02/09 07:23:34;;;;;;;15.18;9.65;;;;;;;;;;5052636;28;20175;-80
2022/02/09 07:28:30;;;;;;;8.00;4.82;;;;;;;;;;5052135;28;20082;-77
2022/02/09 07:30:56;;;;;;;8.90;5.32;;;;;;;;;;5049603;28;20029;-77
2022/02/09 07:33:22;;;;;;;10.00;5.07;;;;;;;;;;5052785;28;20036;-80
2022/02/09 07:35:48;;;;;;;10.25;4.38;;;;;;;;;;5052948;28;20024;-80
2022/02/09 07:38:14;;;;;;;9.15;5.10;;;;;;;;;;5055672;28;20025;-78
2022/02/09 07:40:42;;;;;;;8.95;5.95;;;;;;;;;;5063368;28;20029;-78
2022/02/09 07:43:16;;;;;;;13.15;5.45;;;;;;;;;;5065658;28;20086;-78
2022/02/09 07:46:00;;;;;;;12.70;7.53;;;;;;;;;;5051708;28;20793;-78
2022/02/09 07:48:40;;;;;;;17.17;10.02;;;;;;;;;;5032715;28;20488;-84
2022/02/09 07:51:38;;;;;;;20.70;7.95;;;;;;;;;;5032402;28;20521;-79
2022/02/09 07:54:02;;;;;;;;;;;;;;;;;;5038575;28;20033;-77
2022/02/09 07:56:34;;;;;;;17.67;9.35;;;;;;;;;;5035134;28;19952;-76
2022/02/09 07:59:00;;;;;;;24.95;14.70;;;;;;;;;;5034984;28;20032;-80
2022/02/09 08:01:27;;;;;;;13.75;10.18;;;;;;;;;;5052148;28;20111;-78
2022/02/09 08:03:53;;;;;;;12.38;7.22;;;;;;;;;;5052117;28;20080;-79
2022/02/09 08:06:24;;;;;;;11.98;7.80;;;;;;;;;;5049241;28;20352;-76
2022/02/09 08:08:51;;;;;;;14.90;9.40;;;;;;;;;;5050686;28;20025;-78
2022/02/09 08:27:43;;;;;;;;;;;;;;;;;;5040411;28;20048;-78
2022/02/09 08:33:04;;;;;;;12.40;5.93;;;;;;;;;;5046754;28;20521;-76
2022/02/09 08:35:31;;;;;;;8.38;5.32;;;;;;;;;;5050948;28;20029;-79
2022/02/09 08:37:57;;;;;;;11.10;6.00;;;;;;;;;;5050492;28;20033;-78
2022/02/09 08:40:24;;;;;;;11.77;5.47;;;;;;;;;;5050851;28;20089;-78
2022/02/09 08:42:50;;;;;;;9.10;4.90;;;;;;;;;;5031315;28;20037;-81
2022/02/09 08:45:16;;;;;;;9.85;6.03;;;;;;;;;;5042031;28;20033;-80
2022/02/09 08:47:43;;;;;;;7.50;4.20;;;;;;;;;;5043318;28;20025;-80
2022/02/09 08:50:10;;;;;;;11.38;5.20;;;;;;;;;;5026281;28;20033;-78
2022/02/09 08:52:36;;;;;;;7.90;4.60;;;;;;;;;;5033675;28;20055;-80
2022/02/09 08:55:03;;;;;;;7.53;4.70;;;;;;;;;;5054040;28;20029;-79
2022/02/09 08:57:29;;;;;;;9.07;4.40;;;;;;;;;;5041469;28;20034;-77
2022/02/09 08:59:57;;;;;;;9.82;4.60;;;;;;;;;;5034591;28;20476;-79
2022/02/09 09:02:32;;;;;;;8.93;5.07;;;;;;;;;;5034791;28;20071;-77
2022/02/09 09:05:08;;;;;;;7.95;4.30;;;;;;;;;;5033798;28;20060;-79
2022/02/09 09:07:37;;;;;;;6.35;3.40;;;;;;;;;;5034503;28;20025;-77
2022/02/09 10:04:18;;;;;;;8.57;5.97;;;;;;;;;;5033106;28;20166;-78
2022/02/09 10:35:21;;;;;;;9.38;5.97;;;;;;;;;;5052605;28;20041;-80
2022/02/09 10:37:47;;;;;;;10.40;5.25;;;;;;;;;;5048883;28;20037;-79
2022/02/09 10:40:34;;;;;;;9.65;5.65;;;;;;;;;;5052362;28;20078;-79
2022/02/09 10:43:04;;;;;;;10.18;7.72;;;;;;;;;;5052556;28;20408;-79
2022/02/09 10:45:33;;;;;;;11.30;7.10;;;;;;;;;;5052598;28;20131;-80
2022/02/09 10:48:04;;;;;;;8.57;4.32;;;;;;;;;;5052799;28;20017;-78
2022/02/09 10:50:35;;;;;;;6.93;3.97;;;;;;;;;;5052668;28;20024;-78
2022/02/09 10:53:03;;;;;;;9.65;5.72;;;;;;;;;;5051552;28;20049;-79
2022/02/09 10:55:29;;;;;;;9.13;6.18;;;;;;;;;;5032412;28;20029;-78
2022/02/09 10:57:56;;;;;;;10.77;7.05;;;;;;;;;;5047796;28;20068;-80
2022/02/09 11:00:23;;;;;;;8.20;5.20;;;;;;;;;;5052347;28;20025;-75
2022/02/09 11:02:50;;;;;;;6.47;3.78;;;;;;;;;;5052330;28;20160;-80
2022/02/09 11:05:19;;;;;;;10.73;4.68;;;;;;;;;;5034445;28;20056;-78
2022/02/09 11:07:45;;;;;;;9.68;4.60;;;;;;;;;;5031107;28;20025;-77
2022/02/09 11:10:15;;;;;;;7.03;4.43;;;;;;;;;;5032405;28;20033;-77
2022/02/09 11:12:42;;;;;;;9.95;4.43;;;;;;;;;;5030798;28;20369;-77
2022/02/09 11:15:10;;;;;;;8.68;5.72;;;;;;;;;;5031111;28;20022;-78
2022/02/09 11:17:37;;;;;;;9.88;6.55;;;;;;;;;;5030185;28;20484;-76
2022/02/09 11:20:04;;;;;;;10.60;5.68;;;;;;;;;;5030762;28;20112;-77
2022/02/09 11:22:40;;;;;;;11.23;6.25;;;;;;;;;;5031973;28;20068;-81
2022/02/09 11:25:12;;;;;;;13.25;8.13;;;;;;;;;;5032242;28;20033;-79
2022/02/09 11:27:45;;;;;;;6.80;4.10;;;;;;;;;;5031645;28;20108;-76
2022/02/09 11:30:21;;;;;;;7.00;4.25;;;;;;;;;;5031930;28;20029;-78
2022/02/09 11:33:13;;;;;;;11.93;8.07;;;;;;;;;;5030397;28;20493;-78
2022/02/09 11:36:01;;;;;;;9.45;4.68;;;;;;;;;;5024736;28;20021;-80
2022/02/09 11:38:38;;;;;;;7.65;3.97;;;;;;;;;;5031251;28;20494;-78
2022/02/09 11:41:17;;;;;;;8.23;4.78;;;;;;;;;;5013827;28;20440;-79
2022/02/09 11:43:48;;;;;;;10.65;6.03;;;;;;;;;;5031653;28;20041;-82
2022/02/09 11:46:41;;;;;;;6.28;3.80;;;;;;;;;;5031184;28;20032;-84
2022/02/09 12:01:18;;;;;;;8.48;4.43;;;;;;;;;;5024731;28;20044;-79
2022/02/09 12:12:11;;;;;;;7.55;5.32;;;;;;;;;;5031312;28;20562;-79
2022/02/09 12:17:50;;;;;;;12.32;4.65;;;;;;;;;;5020464;28;20112;-83
2022/02/09 12:20:26;;;;;;;8.68;3.90;;;;;;;;;;5013218;28;20046;-81
2022/02/09 12:25:54;;;;;;;11.50;5.63;;;;;;;;;;4952714;28;20430;-77
2022/02/09 12:28:23;;;;;;;6.93;4.13;;;;;;;;;;4969370;28;20117;-79
2022/02/09 12:30:50;;;;;;;11.18;6.25;;;;;;;;;;4959713;28;20043;-78
2022/02/09 12:33:35;;;;;;;18.00;10.82;;;;;;;;;;4978016;28;20053;-81
2022/02/09 12:36:10;;;;;;;12.90;8.00;;;;;;;;;;5025896;28;20067;-81
2022/02/09 12:38:36;;;;;;;19.70;12.30;;;;;;;;;;4993101;28;20041;-78
2022/02/09 12:41:21;;;;;;;9.40;6.57;;;;;;;;;;5011414;28;20096;-76
2022/02/09 12:43:49;;;;;;;11.23;7.43;;;;;;;;;;5010606;28;20041;-78
2022/02/09 12:46:16;;;;;;;12.32;10.07;;;;;;;;;;5017313;28;20033;-77
2022/02/09 12:48:42;;;;;;;9.85;6.60;;;;;;;;;;5030796;28;20034;-79
2022/02/09 12:51:09;;;;;;;11.98;7.32;;;;;;;;;;5030669;28;20026;-78
2022/02/09 12:53:37;;;;;;;8.75;5.70;;;;;;;;;;5030795;28;20033;-77
2022/02/09 12:56:03;;;;;;;8.73;5.35;;;;;;;;;;5030536;28;20029;-76
2022/02/09 12:58:31;;;;;;;9.00;5.60;;;;;;;;;;5029997;28;20408;-76
2022/02/09 13:01:11;;;;;;;9.77;5.78;;;;;;;;;;5012580;28;20030;-83
2022/02/09 13:03:37;;;;;;;9.43;5.93;;;;;;;;;;5012490;28;20196;-77
2022/02/09 13:06:04;;;;;;;11.05;6.82;;;;;;;;;;5030891;28;20033;-77
2022/02/09 13:08:33;;;;;;;7.63;4.50;;;;;;;;;;5029818;28;20033;-77
2022/02/09 13:11:16;;;;;;;8.73;5.13;;;;;;;;;;5030710;28;20092;-79
2022/02/09 13:13:45;;;;;;;11.38;6.13;;;;;;;;;;5030427;28;20144;-77
2022/02/09 13:16:21;;;;;;;6.32;4.68;;;;;;;;;;5030514;28;20025;-78
2022/02/09 13:22:27;;;;;;;7.95;5.47;;;;;;;;;;5020011;28;20447;-75
2022/02/09 14:53:17;;;;;;;17.75;13.25;;;;;;;;;;5054139;28;20036;-79
2022/02/09 14:56:05;;;;;;;8.73;4.82;;;;;;;;;;5053828;28;20025;-78
2022/02/09 14:58:31;;;;;;;9.43;7.18;;;;;;;;;;5053485;28;20025;-78
2022/02/09 15:01:12;;;;;;;8.02;5.47;;;;;;;;;;5053172;28;20446;-78
2022/02/09 15:09:19;;;;;;;13.60;9.48;;;;;;;;;;5053396;28;20056;-76
2022/02/09 15:22:22;;;;;;;10.63;7.13;;;;;;;;;;5053382;28;19905;-77
2022/02/09 15:24:50;;;;;;;12.68;7.85;;;;;;;;;;5052980;28;20032;-77
2022/02/09 15:27:19;;;;;;;12.75;7.68;;;;;;;;;;5053381;28;20055;-75
2022/02/09 15:29:46;;;;;;;12.43;8.75;;;;;;;;;;5053927;28;20108;-76
2022/02/09 15:37:52;;;;;;;12.23;7.68;;;;;;;;;;5053192;28;20032;-76
2022/02/09 15:56:32;;;;;;;17.35;11.48;;;;;;;;;;5052653;28;20548;-75
2022/02/09 16:10:08;;;;;;;12.00;8.88;;;;;;;;;;5052342;28;20078;-82
2022/02/09 16:24:11;;;;;;;10.68;7.32;;;;;;;;;;5052272;28;20068;-80
2022/02/09 16:44:49;;;;;;;10.10;7.43;;;;;;;;;;5051927;28;20055;-80
2022/02/09 16:50:09;;;;;;;6.97;5.72;;;;;;;;;;5051798;28;20036;-80
2022/02/09 16:55:51;;;;;;;10.10;6.65;;;;;;;;;;5052037;28;20036;-78
2022/02/09 17:19:51;;;;;;;10.80;7.93;;;;;;;;;;5053160;28;20102;-80
2022/02/09 17:22:17;;;;;;;8.60;6.72;;;;;;;;;;5055019;28;20032;-78
2022/02/09 17:56:04;;;;;;;15.30;9.00;;;;;;;;;;5091677;22;20199;-82
2022/02/09 17:58:52;;;;;;;16.55;11.90;;;;;;;;;;5035214;28;20096;-78
2022/02/09 18:01:19;;;;;;;17.00;10.35;;;;;;;;;;5035406;28;20033;-81
2022/02/09 18:03:45;;;;;;;14.43;8.73;;;;;;;;;;5034880;28;20487;-79
2022/02/09 18:06:29;;;;;;;13.75;9.68;;;;;;;;;;5035007;28;20029;-79
2022/02/09 18:09:06;;;;;;;12.77;10.15;;;;;;;;;;5035190;28;20475;-80
2022/02/09 18:27:44;;;;;;;;;;;;;;;;;;5035513;28;20075;-77
2022/02/09 18:33:07;;;;;;;9.68;8.43;;;;;;;;;;5034647;28;20066;-79
2022/02/09 18:44:28;;;;;;;20.40;14.90;;;;;;;;;;5034142;28;20001;-78
2022/02/09 19:00:43;;;;;;;8.48;7.32;;;;;;;;;;5034121;28;20113;-80
2022/02/09 19:03:00;;;;;;;9.60;7.43;;;;;;;;;;5033655;28;20029;-80
2022/02/09 19:05:35;;;;;;;10.32;7.97;;;;;;;;;;5033686;28;20112;-81
2022/02/09 19:31:56;;;;;;;8.07;6.63;;;;;;;;;;5033232;28;20058;-80
2022/02/09 19:44:06;;;;;;;8.93;6.60;;;;;;;;;;5033063;28;20450;-78
2022/02/09 19:48:03;;;;;;;10.93;7.32;;;;;;;;;;5032875;28;20030;-78
2022/02/09 19:55:41;;;;;;;12.85;9.45;;;;;;;;;;5032949;28;20048;-79
2022/02/09 19:58:09;;;;;;;22.80;17.67;;;;;;;;;;5032927;28;20025;-79
2022/02/09 20:00:40;;;;;;;27.52;19.50;;;;;;;;;;5032730;28;20033;-79
2022/02/09 20:03:09;;;;;;;14.23;10.95;;;;;;;;;;5031500;28;20030;-77
2022/02/09 20:05:38;;;;;;;21.52;14.93;;;;;;;;;;5032857;28;20025;-79
2022/02/09 20:08:06;;;;;;;20.98;14.52;;;;;;;;;;5032729;28;20426;-78
2022/02/09 20:10:33;;;;;;;25.65;18.95;;;;;;;;;;5031266;28;20033;-77
2022/02/09 20:13:00;;;;;;;25.02;18.40;;;;;;;;;;5032865;28;20540;-77
2022/02/09 20:15:26;;;;;;;23.83;17.65;;;;;;;;;;5032453;28;20075;-79
2022/02/09 20:17:53;;;;;;;25.90;20.17;;;;;;;;;;5032758;28;20021;-78
2022/02/09 20:20:26;;;;;;;16.17;14.35;;;;;;;;;;5032497;28;20026;-78
2022/02/09 20:22:57;;;;;;;13.40;10.02;;;;;;;;;;5031007;28;20033;-80
2022/02/09 20:25:25;;;;;;;12.90;9.70;;;;;;;;;;5032247;28;20098;-79
2022/02/09 20:27:53;;;;;;;11.25;9.85;;;;;;;;;;5032499;28;20029;-79
2022/02/09 20:30:24;;;;;;;9.95;7.50;;;;;;;;;;5032727;28;20080;-76
2022/02/09 20:32:55;;;;;;;13.35;7.85;;;;;;;;;;5032281;28;20387;-79
2022/02/09 20:35:24;;;;;;;9.90;8.13;;;;;;;;;;5032504;28;20021;-78
2022/02/09 20:37:53;;;;;;;8.95;6.55;;;;;;;;;;5032203;28;20029;-78
2022/02/09 20:40:34;;;;;;;10.55;8.27;;;;;;;;;;5032495;28;20044;-79
2022/02/09 20:43:02;;;;;;;10.98;8.73;;;;;;;;;;5032354;28;20407;-80
2022/02/09 20:45:37;;;;;;;10.80;8.57;;;;;;;;;;5032394;28;20490;-79
2022/02/09 20:48:07;;;;;;;;;;;;;;;;;;5035082;28;20392;-79
2022/02/09 20:50:34;;;;;;;8.98;7.47;;;;;;;;;;5036455;28;19906;-79
2022/02/09 20:53:00;;;;;;;9.63;7.68;;;;;;;;;;5035278;28;20107;-77
2022/02/09 20:55:27;;;;;;;9.93;7.82;;;;;;;;;;5035862;28;20498;-78
2022/02/09 20:57:55;;;;;;;9.48;8.20;;;;;;;;;;5036483;28;20462;-78
2022/02/09 21:00:37;;;;;;;9.70;8.35;;;;;;;;;;5036190;28;20484;-79
2022/02/09 21:11:31;;;;;;;14.38;10.50;;;;;;;;;;5036263;28;20045;-78
2022/02/09 21:33:11;;;;;;;21.98;14.65;;;;;;;;;;5035519;28;20322;-79
2022/02/09 21:54:28;;;;;;;11.95;9.23;;;;;;;;;;5035573;28;20031;-79
2022/02/09 21:57:41;;;;;;;16.92;12.82;;;;;;;;;;5035450;28;20124;-79
2022/02/09 22:16:46;;;;;;;12.60;9.98;;;;;;;;;;5035059;28;20495;-79
2022/02/09 22:19:31;;;;;;;12.82;10.02;;;;;;;;;;5034678;28;20069;-78
2022/02/09 22:22:18;;;;;;;10.60;8.27;;;;;;;;;;5034813;28;20116;-79
2022/02/09 22:27:37;;;;;;;9.82;8.23;;;;;;;;;;5034774;28;20064;-78
2022/02/09 22:47:33;;;;;;;18.60;14.77;;;;;;;;;;5034496;28;20035;-78
2022/02/09 22:55:00;;;;;;;14.82;11.13;;;;;;;;;;5034196;28;20439;-79
2022/02/09 22:57:41;;;;;;;16.15;13.00;;;;;;;;;;5032795;28;20033;-79
2022/02/09 23:00:15;;;;;;;12.80;10.45;;;;;;;;;;5032722;28;20087;-79
2022/02/09 23:02:51;;;;;;;13.83;11.40;;;;;;;;;;5032848;28;20567;-79
2022/02/09 23:13:09;;;;;;;12.55;9.52;;;;;;;;;;5033912;28;20032;-79
2022/02/09 23:15:44;;;;;;;103.82;53.78;;;;;;;;;;5033718;28;20044;-78
2022/02/09 23:19:39;;;;;;;18.98;14.90;;;;;;;;;;5033483;28;20468;-78
